sensor_id;sensor_type;location;lat;lon;timestamp;temperature;humidity
9901;DHT22;4989;48.772;9.154;2023-02-11T10:58:52;7.10;56.30
9901;DHT22;4989;48.772;9.154;2023-02-11T11:03:58;12.50;59.20
9901;DHT22;4989;48.772;9.154;2023-02-11T11:09:00;13.40;55.10
9901;DHT22;4989;48.772;9.154;2023-02-11T11:14:03;13.80;52.10
9901;DHT22;4989;48.772;9.154;2023-02-11T11:24:31;13.00;56.40
9901;DHT22;4989;48.772;9.154;2023-02-11T11:29:50;15.40;51.70
9901;DHT22;4989;48.772;9.154;2023-02-11T11:35:00;17.80;48.10
9901;DHT22;4989;48.772;9.154;2023-02-11T11:40:16;19.90;46.30
9901;DHT22;4989;48.772;9.154;2023-02-11T11:45:25;21.80;42.20
9901;DHT22;4989;48.772;9.154;2023-02-11T11:56:21;22.90;40.60
9901;DHT22;4989;48.772;9.154;2023-02-11T12:01:59;23.60;38.30
9901;DHT22;4989;48.772;9.154;2023-02-11T12:12:36;21.40;39.70
9901;DHT22;4989;48.772;9.154;2023-02-11T14:29:23;17.30;47.10
9901;DHT22;4989;48.772;9.154;2023-02-11T14:50:21;11.60;62.30
9901;DHT22;4989;48.772;9.154;2023-02-11T14:55:33;12.10;64.70
9901;DHT22;4989;48.772;9.154;2023-02-11T15:00:49;12.00;64.10
9901;DHT22;4989;48.772;9.154;2023-02-11T15:06:05;11.90;64.90
9901;DHT22;4989;48.772;9.154;2023-02-11T15:11:16;12.00;64.40
9901;DHT22;4989;48.772;9.154;2023-02-11T15:16:25;11.80;64.00
9901;DHT22;4989;48.772;9.154;2023-02-11T15:21:31;11.70;64.10
9901;DHT22;4989;48.772;9.154;2023-02-11T15:26:36;11.70;63.90
9901;DHT22;4989;48.772;9.154;2023-02-11T15:31:38;11.80;64.50
9901;DHT22;4989;48.772;9.154;2023-02-11T15:36:41;11.60;64.20
9901;DHT22;4989;48.772;9.154;2023-02-11T15:41:44;11.40;66.10
9901;DHT22;4989;48.772;9.154;2023-02-11T15:46:46;11.30;66.90
9901;DHT22;4989;48.772;9.154;2023-02-11T15:51:49;11.30;67.70
9901;DHT22;4989;48.772;9.154;2023-02-11T15:56:58;11.30;65.40
9901;DHT22;4989;48.772;9.154;2023-02-11T16:07:42;11.10;66.10
9901;DHT22;4989;48.772;9.154;2023-02-11T16:18:28;11.10;67.40
9901;DHT22;4989;48.772;9.154;2023-02-11T16:23:41;11.10;67.20
9901;DHT22;4989;48.772;9.154;2023-02-11T16:28:50;11.10;69.00
9901;DHT22;4989;48.772;9.154;2023-02-11T16:33:52;11.00;69.30
9901;DHT22;4989;48.772;9.154;2023-02-11T16:38:55;10.90;68.80
9901;DHT22;4989;48.772;9.154;2023-02-11T16:43:57;10.90;70.60
9901;DHT22;4989;48.772;9.154;2023-02-11T16:49:08;10.90;69.00
9901;DHT22;4989;48.772;9.154;2023-02-11T16:54:13;10.90;69.30
9901;DHT22;4989;48.772;9.154;2023-02-11T16:59:17;10.80;68.60
9901;DHT22;4989;48.772;9.154;2023-02-11T17:04:23;10.90;68.10
9901;DHT22;4989;48.772;9.154;2023-02-11T17:09:27;10.70;67.90
9901;DHT22;4989;48.772;9.154;2023-02-11T17:14:31;10.70;70.10
9901;DHT22;4989;48.772;9.154;2023-02-11T17:19:34;10.80;67.90
9901;DHT22;4989;48.772;9.154;2023-02-11T17:24:36;10.80;69.70
9901;DHT22;4989;48.772;9.154;2023-02-11T17:29:38;10.90;69.50
9901;DHT22;4989;48.772;9.154;2023-02-11T17:34:40;10.70;72.00
9901;DHT22;4989;48.772;9.154;2023-02-11T17:39:43;10.70;69.40
9901;DHT22;4989;48.772;9.154;2023-02-11T17:44:45;10.70;71.70
9901;DHT22;4989;48.772;9.154;2023-02-11T17:49:47;10.60;70.30
9901;DHT22;4989;48.772;9.154;2023-02-11T17:54:50;9.80;69.10
9901;DHT22;4989;48.772;9.154;2023-02-11T17:59:52;10.10;70.20
9901;DHT22;4989;48.772;9.154;2023-02-11T18:04:54;9.80;70.20
9901;DHT22;4989;48.772;9.154;2023-02-11T18:09:58;9.80;71.20
9901;DHT22;4989;48.772;9.154;2023-02-11T18:15:00;9.70;72.60
9901;DHT22;4989;48.772;9.154;2023-02-11T18:20:02;9.50;71.50
9901;DHT22;4989;48.772;9.154;2023-02-11T18:25:07;9.70;78.60
9901;DHT22;4989;48.772;9.154;2023-02-11T18:30:19;9.80;78.10
9901;DHT22;4989;48.772;9.154;2023-02-11T18:35:22;9.90;75.40
9901;DHT22;4989;48.772;9.154;2023-02-11T18:40:24;9.50;72.50
9901;DHT22;4989;48.772;9.154;2023-02-11T18:45:29;9.40;78.50
9901;DHT22;4989;48.772;9.154;2023-02-11T18:50:32;9.90;80.20
9901;DHT22;4989;48.772;9.154;2023-02-11T18:55:38;9.90;75.50
9901;DHT22;4989;48.772;9.154;2023-02-11T19:00:44;9.50;73.70
9901;DHT22;4989;48.772;9.154;2023-02-11T19:05:48;9.10;74.70
9901;DHT22;4989;48.772;9.154;2023-02-11T19:10:51;9.50;74.10
9901;DHT22;4989;48.772;9.154;2023-02-11T19:15:53;9.40;73.10
9901;DHT22;4989;48.772;9.154;2023-02-11T19:20:55;9.00;74.70
9901;DHT22;4989;48.772;9.154;2023-02-11T19:25:57;9.00;75.20
9901;DHT22;4989;48.772;9.154;2023-02-11T19:31:07;9.00;74.90
9901;DHT22;4989;48.772;9.154;2023-02-11T19:36:10;9.10;76.30
9901;DHT22;4989;48.772;9.154;2023-02-11T19:41:17;9.30;74.80
9901;DHT22;4989;48.772;9.154;2023-02-11T19:46:24;9.20;74.90
9901;DHT22;4989;48.772;9.154;2023-02-11T19:51:28;9.30;75.30
9901;DHT22;4989;48.772;9.154;2023-02-11T19:56:33;9.20;75.90
9901;DHT22;4989;48.772;9.154;2023-02-11T20:01:36;9.20;82.40
9901;DHT22;4989;48.772;9.154;2023-02-11T20:06:38;9.20;79.30
9901;DHT22;4989;48.772;9.154;2023-02-11T20:11:41;9.50;80.70
9901;DHT22;4989;48.772;9.154;2023-02-11T20:16:43;9.50;81.00
9901;DHT22;4989;48.772;9.154;2023-02-11T20:21:52;9.80;80.80
9901;DHT22;4989;48.772;9.154;2023-02-11T20:26:56;9.90;79.80
9901;DHT22;4989;48.772;9.154;2023-02-11T20:31:58;9.60;76.00
9901;DHT22;4989;48.772;9.154;2023-02-11T20:37:01;9.60;79.50
9901;DHT22;4989;48.772;9.154;2023-02-11T20:42:04;9.60;79.10
9901;DHT22;4989;48.772;9.154;2023-02-11T20:47:10;9.90;77.60
9901;DHT22;4989;48.772;9.154;2023-02-11T20:52:13;9.80;76.00
9901;DHT22;4989;48.772;9.154;2023-02-11T20:57:15;9.30;78.30
9901;DHT22;4989;48.772;9.154;2023-02-11T21:02:18;9.10;78.40
9901;DHT22;4989;48.772;9.154;2023-02-11T21:07:24;9.30;79.60
9901;DHT22;4989;48.772;9.154;2023-02-11T21:12:29;9.30;78.20
9901;DHT22;4989;48.772;9.154;2023-02-11T21:17:31;9.20;79.30
9901;DHT22;4989;48.772;9.154;2023-02-11T21:22:34;9.20;83.40
9901;DHT22;4989;48.772;9.154;2023-02-11T21:27:36;9.60;81.20
9901;DHT22;4989;48.772;9.154;2023-02-11T21:32:38;9.20;79.40
9901;DHT22;4989;48.772;9.154;2023-02-11T21:37:41;9.10;81.60
9901;DHT22;4989;48.772;9.154;2023-02-11T21:42:43;9.30;82.50
9901;DHT22;4989;48.772;9.154;2023-02-11T21:47:45;9.30;80.00
9901;DHT22;4989;48.772;9.154;2023-02-11T21:52:47;8.80;80.30
9901;DHT22;4989;48.772;9.154;2023-02-11T21:57:49;8.70;82.20
9901;DHT22;4989;48.772;9.154;2023-02-11T22:02:51;9.00;85.80
9901;DHT22;4989;48.772;9.154;2023-02-11T22:07:54;9.50;83.10
9901;DHT22;4989;48.772;9.154;2023-02-11T22:12:56;9.20;79.90
9901;DHT22;4989;48.772;9.154;2023-02-11T22:17:58;8.80;81.90
9901;DHT22;4989;48.772;9.154;2023-02-11T22:23:00;8.60;82.70
9901;DHT22;4989;48.772;9.154;2023-02-11T22:28:02;8.70;84.00
9901;DHT22;4989;48.772;9.154;2023-02-11T22:33:04;8.50;84.40
9901;DHT22;4989;48.772;9.154;2023-02-11T22:38:06;8.70;84.70
9901;DHT22;4989;48.772;9.154;2023-02-11T22:43:09;8.80;88.50
9901;DHT22;4989;48.772;9.154;2023-02-11T22:48:11;9.20;83.30
9901;DHT22;4989;48.772;9.154;2023-02-11T22:53:14;8.90;83.90
9901;DHT22;4989;48.772;9.154;2023-02-11T22:58:16;9.00;83.00
9901;DHT22;4989;48.772;9.154;2023-02-11T23:03:19;8.70;83.90
9901;DHT22;4989;48.772;9.154;2023-02-11T23:08:21;8.50;88.10
9901;DHT22;4989;48.772;9.154;2023-02-11T23:13:23;8.50;84.80
9901;DHT22;4989;48.772;9.154;2023-02-11T23:18:25;8.40;85.20
9901;DHT22;4989;48.772;9.154;2023-02-11T23:23:27;8.40;85.90
9901;DHT22;4989;48.772;9.154;2023-02-11T23:28:30;8.30;86.50
9901;DHT22;4989;48.772;9.154;2023-02-11T23:33:32;8.30;87.20
9901;DHT22;4989;48.772;9.154;2023-02-11T23:38:34;8.40;86.70
9901;DHT22;4989;48.772;9.154;2023-02-11T23:43:37;8.40;88.10
9901;DHT22;4989;48.772;9.154;2023-02-11T23:48:42;8.70;91.90
9901;DHT22;4989;48.772;9.154;2023-02-11T23:53:44;9.30;87.60
9901;DHT22;4989;48.772;9.154;2023-02-11T23:58:48;8.90;86.20
